Time;durP1;ratioP1;P1;durP2;ratioP2;P2;SDS_P1;SDS_P2;PMS_P1;PMS_P2;Temp;Humidity;BMP_temperature;BMP_pressure;BME280_temperature;BME280_humidity;BME280_pressure;Samples;Min_cycle;Max_cycle;Signal;HPM_P1;HPM_P2
2022/10/07 00:01:48;;;;;;;10.93;3.70;;;9.30;99.90;;;;;;5032613;28;20195;-73
2022/10/07 00:04:14;;;;;;;13.57;4.50;;;9.20;99.90;;;;;;5031890;28;20208;-73
2022/10/07 00:06:40;;;;;;;12.03;4.60;;;9.20;99.90;;;;;;5036065;28;20184;-73
2022/10/07 00:09:06;;;;;;;7.93;3.73;;;9.20;99.90;;;;;;5030741;28;20496;-72
2022/10/07 00:11:32;;;;;;;22.33;4.63;;;9.10;99.90;;;;;;5028684;28;20214;-70
2022/10/07 00:14:03;;;;;;;8.33;3.83;;;9.10;99.90;;;;;;5029915;28;20766;-71
2022/10/07 00:16:32;;;;;;;6.10;4.07;;;9.00;99.90;;;;;;5027646;28;20186;-70
2022/10/07 00:19:00;;;;;;;5.30;3.60;;;9.00;99.90;;;;;;5035240;28;20193;-71
2022/10/07 00:21:29;;;;;;;12.77;4.37;;;8.90;99.90;;;;;;5050840;28;20186;-70
2022/10/07 00:23:56;;;;;;;11.27;4.23;;;8.90;99.90;;;;;;5035733;28;20480;-72
2022/10/07 00:26:24;;;;;;;11.53;4.63;;;8.90;99.90;;;;;;5051273;28;20491;-77
2022/10/07 00:28:50;;;;;;;11.83;5.00;;;8.90;99.90;;;;;;5035599;28;20189;-73
2022/10/07 00:31:19;;;;;;;9.47;4.00;;;8.90;99.90;;;;;;5035993;28;20266;-78
2022/10/07 00:33:45;;;;;;;5.53;3.40;;;8.90;99.90;;;;;;5018151;28;20553;-70
2022/10/07 00:36:14;;;;;;;7.33;3.87;;;8.80;99.90;;;;;;5024665;28;20215;-79
2022/10/07 00:38:40;;;;;;;9.03;4.07;;;8.70;99.90;;;;;;5024789;28;20522;-75
2022/10/07 00:41:13;;;;;;;8.83;4.30;;;8.60;99.90;;;;;;5026498;28;20184;-75
2022/10/07 00:43:38;;;;;;;9.50;3.23;;;8.30;99.90;;;;;;5025429;28;20280;-69
2022/10/07 00:46:20;;;;;;;11.23;4.57;;;-6.00;99.90;;;;;;5034772;28;20698;-73
2022/10/07 00:48:46;;;;;;;8.97;4.17;;;-5.60;99.90;;;;;;5034891;28;20658;-76
2022/10/07 00:51:16;;;;;;;7.97;3.80;;;-5.90;99.90;;;;;;5023534;28;20184;-75
2022/10/07 00:53:44;;;;;;;7.33;4.13;;;-6.50;99.90;;;;;;5027622;28;20188;-76
2022/10/07 00:56:10;;;;;;;7.57;4.00;;;-6.60;99.90;;;;;;5043849;28;20190;-72
2022/10/07 00:58:40;;;;;;;7.33;3.50;;;-6.30;99.90;;;;;;5034120;28;20591;-73
2022/10/07 01:01:06;;;;;;;12.47;4.53;;;-6.60;99.90;;;;;;5030469;28;20191;-79
2022/10/07 01:03:34;;;;;;;15.97;4.10;;;-6.40;99.90;;;;;;5035303;28;20188;-74
2022/10/07 01:06:02;;;;;;;13.00;4.57;;;-6.90;99.90;;;;;;5031290;28;20199;-77
2022/10/07 01:08:29;;;;;;;11.53;4.13;;;-6.40;99.90;;;;;;5029109;28;20183;-77
2022/10/07 01:11:25;;;;;;;9.00;4.03;;;-6.40;99.90;;;;;;5023356;28;20184;-78
2022/10/07 01:14:02;;;;;;;8.37;4.00;;;-6.70;99.90;;;;;;5028537;28;20275;-71
2022/10/07 01:16:52;;;;;;;11.63;3.63;;;-6.40;99.90;;;;;;5035555;28;20252;-72
2022/10/07 01:20:00;;;;;;;9.60;3.70;;;-6.10;99.90;;;;;;5033276;28;20188;-72
2022/10/07 01:22:40;;;;;;;12.50;3.77;;;-6.30;99.90;;;;;;5018934;28;20598;-78
2022/10/07 01:25:31;;;;;;;7.50;4.30;;;-6.20;99.90;;;;;;5023300;28;20252;-71
2022/10/07 01:28:14;;;;;;;4.60;3.40;;;-5.80;99.90;;;;;;5031669;28;20495;-75
2022/10/07 01:30:45;;;;;;;8.30;3.77;;;-5.80;99.90;;;;;;5037405;28;20177;-71
2022/10/07 01:33:19;;;;;;;4.80;3.13;;;-6.10;99.90;;;;;;5033757;28;20273;-71
2022/10/07 01:35:49;;;;;;;12.10;5.03;;;-6.20;99.90;;;;;;5028935;28;20198;-70
2022/10/07 01:38:18;;;;;;;8.40;3.70;;;-5.70;99.90;;;;;;5037817;28;20303;-72
2022/10/07 01:40:53;;;;;;;10.30;3.60;;;-6.10;99.90;;;;;;5020237;28;20260;-69
2022/10/07 01:43:21;;;;;;;7.90;3.37;;;-5.70;99.90;;;;;;5026579;28;20485;-75
2022/10/07 01:45:49;;;;;;;7.70;4.07;;;-5.20;99.90;;;;;;5021306;28;20210;-71
2022/10/07 01:48:15;;;;;;;10.90;4.97;;;-5.90;99.90;;;;;;5037109;28;20271;-71
2022/10/07 01:50:42;;;;;;;11.57;5.00;;;-5.40;99.90;;;;;;5033804;28;20180;-73
2022/10/07 01:53:33;;;;;;;13.73;4.10;;;-5.60;99.90;;;;;;5038643;28;20195;-74
2022/10/07 01:56:20;;;;;;;14.60;4.67;;;-5.50;99.90;;;;;;5032382;28;20210;-73
2022/10/07 01:59:22;;;;;;;12.50;4.03;;;-5.70;99.90;;;;;;5029491;28;20198;-76
2022/10/07 02:02:15;;;;;;;9.70;4.73;;;-6.10;99.90;;;;;;5010593;28;20207;-75
2022/10/07 02:04:58;;;;;;;9.17;4.37;;;-6.30;99.90;;;;;;5009405;28;20248;-72
2022/10/07 02:07:42;;;;;;;9.07;4.57;;;-6.60;99.90;;;;;;5030513;28;20175;-73
2022/10/07 02:10:42;;;;;;;11.53;4.07;;;-6.60;99.90;;;;;;5034508;28;20200;-71
2022/10/07 02:13:33;;;;;;;19.43;6.37;;;-6.40;99.90;;;;;;5050337;28;20544;-74
2022/10/07 02:16:07;;;;;;;7.67;3.33;;;-6.60;99.90;;;;;;5038054;28;20184;-76
2022/10/07 02:18:36;;;;;;;10.57;4.30;;;-6.60;99.90;;;;;;5020092;28;20187;-76
2022/10/07 02:21:05;;;;;;;4.17;3.67;;;-7.00;99.90;;;;;;5033814;28;20542;-75
2022/10/07 02:23:35;;;;;;;10.10;4.10;;;-6.70;99.90;;;;;;5034177;28;20543;-70
2022/10/07 02:26:03;;;;;;;8.90;3.90;;;-6.30;99.90;;;;;;5024542;28;20624;-75
2022/10/07 02:28:32;;;;;;;9.57;3.87;;;-6.90;99.90;;;;;;5028709;28;20223;-71
2022/10/07 02:31:00;;;;;;;11.03;4.60;;;-8.00;99.90;;;;;;5031909;28;20560;-77
2022/10/07 02:33:29;;;;;;;14.53;4.70;;;-7.80;99.90;;;;;;5043256;28;20323;-73
2022/10/07 02:36:06;;;;;;;9.67;4.30;;;-7.70;99.90;;;;;;5036607;28;20191;-77
2022/10/07 02:38:32;;;;;;;11.00;4.43;;;-7.90;99.90;;;;;;5044018;28;20185;-78
2022/10/07 02:41:06;;;;;;;12.80;3.90;;;-7.20;99.90;;;;;;5030384;28;20330;-78
2022/10/07 02:43:52;;;;;;;8.77;4.23;;;-6.70;99.90;;;;;;5036232;28;20187;-77
2022/10/07 02:46:34;;;;;;;21.40;4.63;;;-7.30;99.90;;;;;;5024790;28;20216;-73
2022/10/07 02:49:04;;;;;;;12.13;4.10;;;-7.10;99.90;;;;;;5026919;28;20219;-75
2022/10/07 02:51:58;;;;;;;10.37;3.73;;;-6.40;99.90;;;;;;5037381;28;20176;-72
2022/10/07 02:54:33;;;;;;;13.90;3.53;;;-6.70;99.90;;;;;;5028482;28;20180;-70
2022/10/07 02:57:00;;;;;;;12.27;3.70;;;-6.60;99.90;;;;;;5035741;28;20496;-77
2022/10/07 02:59:28;;;;;;;12.33;4.17;;;-6.30;99.90;;;;;;5019194;28;20197;-77
2022/10/07 03:01:59;;;;;;;6.87;3.57;;;-6.80;99.90;;;;;;5028842;28;20287;-69
2022/10/07 03:04:25;;;;;;;10.97;4.33;;;-7.10;99.90;;;;;;5036050;28;20222;-73
2022/10/07 03:06:51;;;;;;;6.77;3.90;;;-6.90;99.90;;;;;;5036095;28;20186;-76
2022/10/07 03:09:17;;;;;;;4.60;3.73;;;-6.70;99.90;;;;;;5035359;28;20515;-71
2022/10/07 03:11:42;;;;;;;7.03;3.53;;;8.10;99.90;;;;;;5033477;28;20182;-73
2022/10/07 03:14:09;;;;;;;9.93;4.47;;;8.10;99.90;;;;;;5018480;28;20201;-72
2022/10/07 03:16:34;;;;;;;8.37;4.30;;;8.10;99.90;;;;;;5041516;28;20593;-72
2022/10/07 03:19:00;;;;;;;10.83;4.57;;;8.10;99.90;;;;;;5030819;28;20173;-73
2022/10/07 03:21:26;;;;;;;7.83;3.80;;;8.10;99.90;;;;;;5036843;28;20179;-78
2022/10/07 03:23:54;;;;;;;11.63;3.67;;;8.00;99.90;;;;;;5027508;28;20181;-73
2022/10/07 03:26:20;;;;;;;4.77;3.67;;;8.00;99.90;;;;;;5025462;28;20227;-73
2022/10/07 03:28:47;;;;;;;7.50;3.97;;;8.00;99.90;;;;;;5036387;28;20191;-78
2022/10/07 03:31:14;;;;;;;10.70;3.67;;;8.00;99.90;;;;;;5026003;28;20193;-78
2022/10/07 03:33:40;;;;;;;6.07;3.43;;;8.00;99.90;;;;;;5026569;28;20182;-76
2022/10/07 03:36:07;;;;;;;12.13;3.27;;;8.00;99.90;;;;;;5018691;28;20186;-77
2022/10/07 03:38:34;;;;;;;11.30;4.00;;;8.00;99.90;;;;;;5017226;28;20241;-71
2022/10/07 03:41:02;;;;;;;11.10;3.93;;;8.00;99.90;;;;;;5033710;28;20217;-74
2022/10/07 03:43:28;;;;;;;8.60;3.33;;;8.00;99.90;;;;;;5035348;28;20241;-79
2022/10/07 03:45:55;;;;;;;14.70;4.03;;;8.00;99.90;;;;;;5033587;28;20210;-78
2022/10/07 03:48:21;;;;;;;8.47;3.27;;;8.10;99.90;;;;;;5031391;28;20192;-69
2022/10/07 03:50:51;;;;;;;18.33;3.13;;;8.20;99.90;;;;;;5032801;28;20323;-71
2022/10/07 03:53:17;;;;;;;6.03;2.60;;;8.30;99.90;;;;;;5031921;28;20515;-73
2022/10/07 03:55:43;;;;;;;8.03;2.63;;;8.30;99.90;;;;;;5031123;28;20181;-75
2022/10/07 03:58:11;;;;;;;11.43;3.33;;;8.40;99.90;;;;;;5035779;28;20602;-75
2022/10/07 04:00:37;;;;;;;9.67;3.53;;;8.40;99.90;;;;;;5036175;28;20208;-72
2022/10/07 04:03:04;;;;;;;6.97;3.17;;;8.50;99.90;;;;;;5035976;28;20660;-75
2022/10/07 04:05:30;;;;;;;12.43;4.23;;;8.50;99.90;;;;;;5036018;28;20210;-77
2022/10/07 04:07:57;;;;;;;7.83;3.60;;;8.50;99.90;;;;;;5018037;28;20584;-77
2022/10/07 04:10:23;;;;;;;10.43;3.00;;;8.50;99.90;;;;;;5035249;28;20533;-78
2022/10/07 04:12:52;;;;;;;11.90;3.37;;;8.40;99.90;;;;;;5027057;28;20190;-77
2022/10/07 04:15:19;;;;;;;18.63;4.80;;;8.40;99.90;;;;;;5023307;28;20250;-73
2022/10/07 04:17:46;;;;;;;10.00;3.03;;;8.40;99.90;;;;;;5029706;28;20200;-73
2022/10/07 04:20:14;;;;;;;10.43;3.67;;;8.40;99.90;;;;;;5029674;28;20185;-72
2022/10/07 04:22:39;;;;;;;8.10;2.90;;;8.40;99.90;;;;;;5028433;28;20202;-70
2022/10/07 04:27:55;;;;;;;13.77;4.23;;;8.40;99.90;;;;;;5024635;28;20199;-80
2022/10/07 04:30:23;;;;;;;8.83;2.60;;;8.40;99.90;;;;;;5034321;28;20185;-77
2022/10/07 04:32:49;;;;;;;12.17;3.30;;;8.30;99.90;;;;;;5029138;28;20570;-76
2022/10/07 04:35:16;;;;;;;10.40;3.37;;;8.30;99.90;;;;;;5025459;28;20216;-75
2022/10/07 04:37:42;;;;;;;18.47;3.80;;;8.30;99.90;;;;;;5026844;28;20217;-73
2022/10/07 04:40:09;;;;;;;18.43;3.67;;;8.40;99.90;;;;;;5035866;28;20209;-76
2022/10/07 04:45:19;;;;;;;10.77;3.70;;;8.50;99.90;;;;;;5030999;28;20310;-75
2022/10/07 04:47:45;;;;;;;16.97;4.43;;;8.50;99.90;;;;;;5021805;28;20229;-74
2022/10/07 04:50:12;;;;;;;18.80;4.73;;;8.60;99.90;;;;;;5024475;28;20183;-72
2022/10/07 04:52:41;;;;;;;7.83;2.90;;;8.50;99.90;;;;;;5029457;28;20244;-73
2022/10/07 04:55:10;;;;;;;14.87;4.63;;;8.60;99.90;;;;;;5035213;28;20189;-72
2022/10/07 04:57:35;;;;;;;9.70;3.23;;;8.60;99.90;;;;;;5035640;28;20190;-72
2022/10/07 05:00:01;;;;;;;11.13;2.87;;;8.50;99.90;;;;;;5044610;28;20597;-74
2022/10/07 05:02:27;;;;;;;10.57;3.83;;;8.50;99.90;;;;;;5039397;28;20202;-69
2022/10/07 05:04:53;;;;;;;13.33;3.33;;;8.50;99.90;;;;;;5028891;28;20211;-71
2022/10/07 05:07:19;;;;;;;11.47;3.83;;;8.50;99.90;;;;;;5033900;28;20471;-72
2022/10/07 05:09:44;;;;;;;6.43;2.53;;;8.50;99.90;;;;;;5035138;28;20186;-70
2022/10/07 05:12:10;;;;;;;9.93;3.03;;;8.40;99.90;;;;;;5035434;28;20214;-72
2022/10/07 05:14:36;;;;;;;15.70;4.83;;;8.50;99.90;;;;;;5034064;28;20214;-76
2022/10/07 05:17:02;;;;;;;6.13;2.90;;;8.50;99.90;;;;;;5021922;28;20611;-71
2022/10/07 05:19:29;;;;;;;11.57;3.53;;;8.40;99.90;;;;;;5042370;28;20203;-72
2022/10/07 05:21:54;;;;;;;14.73;3.73;;;8.40;99.90;;;;;;5029027;28;20826;-72
2022/10/07 05:24:20;;;;;;;7.27;3.53;;;8.40;99.90;;;;;;5025171;28;20242;-78
2022/10/07 05:26:46;;;;;;;10.63;2.97;;;8.40;99.90;;;;;;5035844;28;20237;-78
2022/10/07 05:29:12;;;;;;;11.50;4.50;;;8.40;99.90;;;;;;5051874;28;20608;-79
2022/10/07 05:31:38;;;;;;;11.20;4.00;;;8.40;99.90;;;;;;5037285;28;20187;-70
2022/10/07 05:34:03;;;;;;;15.87;4.13;;;8.40;99.90;;;;;;5050539;28;20183;-71
2022/10/07 05:36:29;;;;;;;10.07;3.53;;;8.40;99.90;;;;;;5024131;28;20211;-70
2022/10/07 05:38:59;;;;;;;6.63;3.07;;;8.40;99.90;;;;;;5021307;28;20234;-70
2022/10/07 05:41:27;;;;;;;8.77;2.90;;;8.30;99.90;;;;;;5033735;28;20212;-74
2022/10/07 05:43:53;;;;;;;13.70;3.50;;;8.30;99.90;;;;;;5032004;28;20180;-70
2022/10/07 05:46:19;;;;;;;8.83;3.90;;;8.30;99.90;;;;;;5054007;28;20215;-74
2022/10/07 05:48:52;;;;;;;10.30;4.10;;;8.40;99.90;;;;;;5038604;28;20182;-71
2022/10/07 05:51:23;;;;;;;13.83;3.83;;;8.40;99.90;;;;;;5038858;28;20220;-72
2022/10/07 05:53:55;;;;;;;8.80;3.70;;;8.30;99.90;;;;;;5038114;28;20173;-75
2022/10/07 05:56:22;;;;;;;9.10;3.80;;;8.40;99.90;;;;;;5033887;28;20345;-71
2022/10/07 05:58:49;;;;;;;6.90;3.70;;;8.30;99.90;;;;;;5038335;28;20282;-75
2022/10/07 06:01:17;;;;;;;12.53;3.60;;;8.40;99.90;;;;;;5032015;28;20209;-76
2022/10/07 06:03:47;;;;;;;7.33;3.70;;;8.30;99.90;;;;;;5040962;28;20193;-76
2022/10/07 06:06:13;;;;;;;11.33;4.03;;;8.30;99.90;;;;;;5028457;28;20503;-77
2022/10/07 06:08:39;;;;;;;8.17;3.83;;;8.30;99.90;;;;;;5032143;28;20267;-78
2022/10/07 06:13:53;;;;;;;13.33;4.67;;;8.30;99.90;;;;;;5035369;28;20568;-71
2022/10/07 06:16:19;;;;;;;12.13;3.57;;;8.20;99.90;;;;;;5046488;28;20193;-70
2022/10/07 06:18:45;;;;;;;17.30;4.70;;;8.30;99.90;;;;;;5030269;28;20533;-74
2022/10/07 06:21:11;;;;;;;17.23;4.90;;;8.20;99.90;;;;;;5030486;28;20194;-72
2022/10/07 06:23:37;;;;;;;8.07;3.53;;;8.30;99.90;;;;;;5029557;28;20615;-70
2022/10/07 06:26:06;;;;;;;9.80;3.70;;;8.30;99.90;;;;;;5030749;28;20234;-72
2022/10/07 06:28:37;;;;;;;8.97;3.57;;;8.30;99.90;;;;;;5037828;28;20640;-71
2022/10/07 06:31:08;;;;;;;9.20;3.60;;;8.30;99.90;;;;;;5034101;28;20198;-71
2022/10/07 06:33:34;;;;;;;16.63;5.40;;;8.30;99.90;;;;;;5035615;28;20197;-70
2022/10/07 06:36:09;;;;;;;11.97;4.63;;;8.40;99.90;;;;;;5019867;28;20184;-71
2022/10/07 06:38:35;;;;;;;10.60;4.43;;;8.50;99.90;;;;;;5035685;28;20249;-70
2022/10/07 06:41:08;;;;;;;11.47;4.27;;;8.60;99.90;;;;;;5036600;28;20195;-69
2022/10/07 06:43:34;;;;;;;8.37;3.57;;;8.70;99.90;;;;;;5035226;28;20278;-67
2022/10/07 06:46:02;;;;;;;9.50;4.17;;;8.70;99.90;;;;;;5049069;28;20290;-77
2022/10/07 06:48:29;;;;;;;7.47;4.50;;;8.70;99.90;;;;;;5037056;28;20178;-75
2022/10/07 06:50:59;;;;;;;8.70;4.30;;;8.80;99.90;;;;;;5029560;28;20190;-67
2022/10/07 06:53:25;;;;;;;14.30;3.67;;;8.80;99.90;;;;;;5037278;28;20191;-67
2022/10/07 06:55:53;;;;;;;10.70;3.60;;;8.80;99.90;;;;;;5026712;28;20184;-67
2022/10/07 06:58:26;;;;;;;18.03;4.17;;;8.90;99.90;;;;;;5025179;28;20201;-68
2022/10/07 07:00:55;;;;;;;14.63;5.27;;;9.10;99.90;;;;;;5018740;28;20211;-67
2022/10/07 07:03:22;;;;;;;19.47;5.27;;;9.20;99.90;;;;;;5039075;28;20637;-67
2022/10/07 07:05:50;;;;;;;22.13;5.60;;;9.30;99.90;;;;;;5031907;28;20322;-68
2022/10/07 07:08:17;;;;;;;18.40;5.20;;;9.50;99.90;;;;;;5030525;28;20192;-67
2022/10/07 07:10:44;;;;;;;14.33;4.03;;;9.60;99.90;;;;;;5036654;28;20191;-69
2022/10/07 07:13:11;;;;;;;23.43;5.97;;;9.70;99.90;;;;;;5025251;28;20178;-68
2022/10/07 07:15:38;;;;;;;21.83;4.60;;;9.80;99.90;;;;;;5051283;28;20213;-69
2022/10/07 07:18:06;;;;;;;17.97;5.20;;;9.80;99.90;;;;;;5034014;28;20183;-69
2022/10/07 07:20:36;;;;;;;21.00;4.77;;;9.70;99.90;;;;;;5047871;28;20226;-68
2022/10/07 07:23:04;;;;;;;20.23;4.53;;;9.50;99.90;;;;;;5032466;28;20192;-69
2022/10/07 07:25:31;;;;;;;24.73;4.30;;;9.30;99.90;;;;;;5030750;28;20238;-69
2022/10/07 07:28:00;;;;;;;12.00;4.43;;;8.80;99.90;;;;;;5055463;28;20185;-70
2022/10/07 07:30:27;;;;;;;10.27;3.80;;;7.80;99.90;;;;;;5037635;28;20528;-67
2022/10/07 07:32:54;;;;;;;17.17;4.53;;;-5.40;99.90;;;;;;5037462;28;20250;-72
2022/10/07 07:35:25;;;;;;;24.67;4.57;;;-4.30;99.90;;;;;;5023067;28;20195;-70
2022/10/07 07:37:51;;;;;;;13.17;5.43;;;-4.10;99.90;;;;;;5031207;28;20206;-69
2022/10/07 07:40:17;;;;;;;17.97;4.47;;;-4.30;99.90;;;;;;5024568;28;20193;-68
2022/10/07 07:42:47;;;;;;;15.43;3.73;;;-4.50;99.90;;;;;;5021904;28;20212;-69
2022/10/07 07:45:13;;;;;;;15.43;4.60;;;-4.40;99.90;;;;;;5031224;28;20209;-68
2022/10/07 07:47:39;;;;;;;22.07;4.50;;;-5.20;99.90;;;;;;5028539;28;20184;-69
2022/10/07 07:50:06;;;;;;;10.27;3.70;;;-5.20;99.90;;;;;;5030762;28;20193;-67
2022/10/07 07:52:32;;;;;;;19.50;4.80;;;-5.30;99.90;;;;;;5032143;28;20608;-66
2022/10/07 07:54:58;;;;;;;5.80;3.60;;;-4.80;99.90;;;;;;5051619;28;20211;-68
2022/10/07 07:57:26;;;;;;;9.90;3.60;;;-5.90;99.90;;;;;;5031943;28;20177;-66
2022/10/07 07:59:53;;;;;;;8.77;3.43;;;11.30;99.90;;;;;;5036067;28;20185;-67
2022/10/07 08:02:20;;;;;;;13.33;5.00;;;11.40;99.90;;;;;;5019071;28;20224;-67
2022/10/07 08:04:45;;;;;;;16.40;3.43;;;11.50;99.90;;;;;;5028495;28;20290;-67
2022/10/07 08:07:12;;;;;;;17.67;4.87;;;11.60;99.90;;;;;;5033794;28;20599;-67
2022/10/07 08:09:38;;;;;;;13.90;5.17;;;11.60;99.90;;;;;;5036032;28;20207;-67
2022/10/07 08:12:05;;;;;;;13.37;3.90;;;11.60;99.90;;;;;;5031854;28;20209;-68
2022/10/07 08:14:30;;;;;;;11.17;4.03;;;11.40;99.90;;;;;;5034815;28;20210;-65
2022/10/07 08:16:58;;;;;;;10.43;4.63;;;9.60;99.90;;;;;;5042283;28;20307;-67
2022/10/07 08:19:25;;;;;;;16.13;4.83;;;-4.30;99.90;;;;;;5026576;28;20214;-68
2022/10/07 08:21:51;;;;;;;19.13;4.73;;;-3.80;99.90;;;;;;5035932;28;20213;-66
2022/10/07 08:24:17;;;;;;;24.33;5.27;;;-3.40;99.90;;;;;;5035906;28;20183;-67
2022/10/07 08:26:43;;;;;;;16.00;4.27;;;-3.10;99.90;;;;;;5027865;28;20232;-67
2022/10/07 08:29:10;;;;;;;14.53;4.67;;;-4.90;99.90;;;;;;5027895;28;20188;-67
2022/10/07 08:31:35;;;;;;;30.00;4.20;;;-4.50;99.90;;;;;;5032097;28;20185;-73
2022/10/07 08:34:03;;;;;;;15.20;3.70;;;-4.50;99.90;;;;;;5028420;28;20250;-72
2022/10/07 08:36:31;;;;;;;12.77;4.03;;;-4.30;99.90;;;;;;5021833;28;20184;-72
2022/10/07 08:38:58;;;;;;;13.83;3.63;;;-4.60;99.90;;;;;;5034033;28;20199;-70
2022/10/07 08:41:47;;;;;;;11.37;4.50;;;-5.20;99.90;;;;;;5028179;28;20235;-69
2022/10/07 08:44:16;;;;;;;10.20;4.00;;;-4.80;99.90;;;;;;5032438;28;20192;-71
2022/10/07 08:47:05;;;;;;;14.53;4.47;;;-3.30;99.90;;;;;;5029492;28;20200;-69
2022/10/07 08:50:11;;;;;;;8.13;3.90;;;-3.10;99.90;;;;;;5023530;28;20227;-69
2022/10/07 08:52:37;;;;;;;10.30;3.83;;;-3.20;99.90;;;;;;5047502;28;20273;-69
2022/10/07 08:55:17;;;;;;;22.50;4.60;;;-3.10;99.90;;;;;;5030199;28;20199;-69
2022/10/07 08:58:04;;;;;;;10.30;3.10;;;-3.90;99.90;;;;;;5029179;28;20177;-70
2022/10/07 09:00:48;;;;;;;9.50;4.13;;;-2.50;99.90;;;;;;5033783;28;20294;-70
2022/10/07 09:03:44;;;;;;;15.60;3.63;;;12.80;99.90;;;;;;5027362;28;20189;-71
2022/10/07 09:06:14;;;;;;;12.90;3.70;;;12.80;99.90;;;;;;5030563;28;20228;-73
2022/10/07 09:08:46;;;;;;;12.73;3.53;;;12.90;99.90;;;;;;5034294;28;20180;-69
2022/10/07 09:11:19;;;;;;;12.37;3.37;;;12.80;99.90;;;;;;5031992;28;20180;-71
2022/10/07 09:14:03;;;;;;;13.93;4.77;;;12.20;99.90;;;;;;5029739;28;20187;-75
2022/10/07 09:16:37;;;;;;;9.63;3.07;;;-3.20;99.90;;;;;;5034834;28;20211;-76
2022/10/07 09:19:04;;;;;;;20.77;4.33;;;-3.80;99.90;;;;;;5038810;28;20911;-70
2022/10/07 09:21:40;;;;;;;13.30;4.37;;;-4.60;99.90;;;;;;5031430;28;20458;-71
2022/10/07 09:24:27;;;;;;;13.67;4.13;;;-4.50;99.90;;;;;;5023064;28;20283;-69
2022/10/07 09:26:59;;;;;;;7.93;3.40;;;-2.90;99.90;;;;;;5032985;28;20184;-71
2022/10/07 09:29:28;;;;;;;12.07;4.70;;;-3.00;99.90;;;;;;5026979;28;20179;-72
2022/10/07 09:31:55;;;;;;;9.33;4.17;;;-3.20;99.90;;;;;;5028890;28;20607;-68
2022/10/07 09:34:27;;;;;;;11.87;5.23;;;-1.30;99.90;;;;;;5035186;28;20189;-70
2022/10/07 09:37:18;;;;;;;15.33;4.40;;;-3.20;99.90;;;;;;5024143;28;20169;-69
2022/10/07 09:39:45;;;;;;;8.90;3.77;;;-4.00;99.90;;;;;;5035011;28;20176;-70
2022/10/07 09:42:29;;;;;;;22.90;3.73;;;-3.20;99.90;;;;;;5019455;28;20193;-72
2022/10/07 09:44:59;;;;;;;13.70;3.57;;;-2.10;99.90;;;;;;5029566;28;20212;-70
2022/10/07 09:47:28;;;;;;;14.07;3.83;;;-3.10;99.90;;;;;;5035604;28;20227;-70
2022/10/07 09:49:58;;;;;;;35.27;3.83;;;-1.80;99.90;;;;;;5031192;28;20168;-71
2022/10/07 09:52:27;;;;;;;10.70;3.70;;;-1.40;99.90;;;;;;5036708;28;20173;-71
2022/10/07 09:55:16;;;;;;;8.87;3.17;;;-0.80;99.90;;;;;;5037660;28;20584;-70
2022/10/07 09:57:42;;;;;;;25.73;5.63;;;-1.10;99.90;;;;;;5034690;28;20177;-70
2022/10/07 10:00:11;;;;;;;11.27;3.67;;;0.10;99.90;;;;;;5032178;28;20520;-70
2022/10/07 10:02:41;;;;;;;18.93;4.83;;;0.10;99.90;;;;;;5040895;28;20619;-70
2022/10/07 10:05:38;;;;;;;9.93;3.33;;;-1.40;99.90;;;;;;5030794;28;20220;-70
2022/10/07 10:08:22;;;;;;;17.67;4.97;;;-0.90;99.90;;;;;;5030893;28;20189;-70
2022/10/07 10:10:54;;;;;;;9.57;2.90;;;-0.80;99.90;;;;;;5031626;28;20521;-70
2022/10/07 10:13:29;;;;;;;16.17;3.90;;;-0.40;99.90;;;;;;5024432;28;20185;-70
2022/10/07 10:15:55;;;;;;;11.60;3.80;;;0.10;99.90;;;;;;5033375;28;20208;-70
2022/10/07 10:18:27;;;;;;;9.70;3.33;;;15.80;99.90;;;;;;5033871;28;20185;-70
2022/10/07 10:20:53;;;;;;;7.47;2.80;;;15.80;99.90;;;;;;5046184;28;20279;-70
2022/10/07 10:23:27;;;;;;;10.40;2.27;;;15.80;99.90;;;;;;5041485;28;20270;-72
2022/10/07 10:29:23;;;;;;;7.73;2.67;;;15.80;99.90;;;;;;5030318;28;20539;-68
2022/10/07 10:31:52;;;;;;;9.57;2.63;;;15.80;99.90;;;;;;5025198;28;20235;-71
2022/10/07 10:34:22;;;;;;;7.60;2.73;;;15.90;99.90;;;;;;5033523;28;20186;-71
2022/10/07 10:36:58;;;;;;;7.27;2.90;;;15.80;99.90;;;;;;5035304;28;20230;-70
2022/10/07 10:39:50;;;;;;;6.53;3.27;;;15.80;99.90;;;;;;5036241;28;20184;-69
2022/10/07 10:42:25;;;;;;;4.83;2.10;;;15.90;99.90;;;;;;5040345;28;20532;-70
2022/10/07 10:45:11;;;;;;;9.77;2.97;;;15.90;99.90;;;;;;5036890;28;20502;-76
2022/10/07 10:47:45;;;;;;;11.03;2.73;;;16.00;99.90;;;;;;5038156;28;20588;-69
2022/10/07 10:50:28;;;;;;;14.77;2.77;;;16.00;99.90;;;;;;5027591;28;20487;-71
2022/10/07 10:53:14;;;;;;;8.07;3.10;;;16.00;99.90;;;;;;5026173;28;20231;-71
2022/10/07 10:56:13;;;;;;;5.37;2.17;;;15.60;99.90;;;;;;5023872;28;20184;-72
2022/10/07 10:59:11;;;;;;;11.97;2.93;;;12.30;99.90;;;;;;5045961;28;20193;-70
2022/10/07 11:01:41;;;;;;;7.83;2.97;;;12.60;99.90;;;;;;5022845;28;20222;-70
2022/10/07 11:04:16;;;;;;;12.60;2.73;;;16.40;99.90;;;;;;5031656;28;20596;-71
2022/10/07 11:06:48;;;;;;;9.70;3.20;;;16.50;99.90;;;;;;5037094;28;20187;-71
2022/10/07 11:09:28;;;;;;;5.30;2.37;;;16.30;99.90;;;;;;5023929;28;20180;-76
2022/10/07 11:11:55;;;;;;;11.90;4.10;;;16.30;99.90;;;;;;5032192;28;20173;-73
2022/10/07 11:14:23;;;;;;;6.27;2.30;;;16.00;99.90;;;;;;5029061;28;20283;-73
2022/10/07 11:16:51;;;;;;;8.13;2.40;;;15.80;99.90;;;;;;5056426;28;20218;-73
2022/10/07 11:19:30;;;;;;;9.97;3.63;;;2.00;99.90;;;;;;5031866;28;21513;-72
2022/10/07 11:22:00;;;;;;;8.27;2.27;;;13.40;99.90;;;;;;5040841;28;20180;-70
2022/10/07 11:24:41;;;;;;;14.50;3.47;;;17.00;99.90;;;;;;5035202;28;20184;-71
2022/10/07 11:27:13;;;;;;;6.67;3.10;;;17.60;99.90;;;;;;5031202;28;20168;-76
2022/10/07 11:30:14;;;;;;;7.23;2.27;;;17.90;99.90;;;;;;5032001;28;20177;-76
2022/10/07 11:32:48;;;;;;;8.37;2.43;;;18.30;99.90;;;;;;5022941;28;20189;-79
2022/10/07 11:35:31;;;;;;;5.07;2.87;;;15.80;99.90;;;;;;5038295;28;20185;-78
2022/10/07 11:38:26;;;;;;;8.37;1.93;;;18.50;99.90;;;;;;5030500;28;20208;-82
2022/10/07 11:41:00;;;;;;;12.67;2.60;;;18.40;99.90;;;;;;5023043;28;20464;-77
2022/10/07 11:43:46;;;;;;;13.53;3.03;;;1.00;97.70;;;;;;5029423;28;20196;-88
2022/10/07 11:46:23;;;;;;;11.93;3.27;;;19.00;99.90;;;;;;5033607;28;20230;-71
2022/10/07 11:48:59;;;;;;;13.87;3.10;;;16.10;99.90;;;;;;5034109;28;20206;-72
2022/10/07 11:51:28;;;;;;;8.03;2.90;;;17.60;99.80;;;;;;5025018;28;20189;-73
2022/10/07 11:53:56;;;;;;;5.80;2.47;;;17.90;99.60;;;;;;5034628;28;20180;-72
2022/10/07 11:56:25;;;;;;;8.17;2.00;;;17.80;99.20;;;;;;5031284;28;20192;-73
2022/10/07 11:59:00;;;;;;;4.83;2.43;;;17.90;99.90;;;;;;5033432;28;20596;-72
2022/10/07 12:01:29;;;;;;;9.87;3.50;;;18.00;99.90;;;;;;5034196;28;20690;-73
2022/10/07 12:04:17;;;;;;;11.17;3.43;;;16.70;99.20;;;;;;5040150;28;20189;-75
2022/10/07 12:07:21;;;;;;;11.00;3.73;;;19.20;99.90;;;;;;5036885;28;20643;-72
2022/10/07 12:09:54;;;;;;;7.70;2.33;;;20.70;98.00;;;;;;5047930;28;20171;-72
2022/10/07 12:12:23;;;;;;;7.33;2.83;;;20.70;98.10;;;;;;5036358;28;20185;-72
2022/10/07 12:15:01;;;;;;;5.93;2.90;;;20.80;98.90;;;;;;5031564;28;20199;-71
2022/10/07 12:17:29;;;;;;;5.90;2.27;;;20.50;98.30;;;;;;5023519;28;20181;-71
2022/10/07 12:20:33;;;;;;;6.80;2.80;;;20.90;97.80;;;;;;5029143;28;20254;-76
2022/10/07 12:25:50;;;;;;;10.03;4.27;;;19.90;97.30;;;;;;5025887;28;20542;-71
2022/10/07 12:28:24;;;;;;;7.50;2.73;;;15.00;96.40;;;;;;5032168;28;20688;-72
2022/10/07 12:30:55;;;;;;;5.37;2.30;;;21.30;96.70;;;;;;5024213;28;20176;-77
2022/10/07 12:33:43;;;;;;;7.93;2.17;;;20.30;96.60;;;;;;5027362;28;20184;-76
2022/10/07 12:36:21;;;;;;;6.80;3.33;;;21.10;97.40;;;;;;5030146;28;20196;-72
2022/10/07 12:38:58;;;;;;;9.67;2.50;;;21.30;95.50;;;;;;5029994;28;20494;-70
2022/10/07 12:41:24;;;;;;;11.77;3.10;;;21.30;96.60;;;;;;5024801;28;20187;-72
2022/10/07 12:43:54;;;;;;;7.50;3.10;;;20.80;95.20;;;;;;5032834;28;20260;-78
2022/10/07 12:46:22;;;;;;;4.07;2.43;;;20.00;94.40;;;;;;5025660;28;20249;-71
2022/10/07 12:49:01;;;;;;;8.00;2.83;;;21.10;95.10;;;;;;5037409;28;20281;-77
2022/10/07 12:51:39;;;;;;;14.27;4.30;;;22.30;94.60;;;;;;5039592;28;20164;-81
2022/10/07 12:54:31;;;;;;;8.07;2.50;;;22.70;95.50;;;;;;5043120;28;20160;-73
2022/10/07 12:56:57;;;;;;;10.13;2.40;;;22.70;92.70;;;;;;5022575;28;20216;-71
2022/10/07 12:59:47;;;;;;;8.13;3.27;;;22.60;92.40;;;;;;5039168;28;20180;-71
2022/10/07 13:02:16;;;;;;;11.67;4.00;;;22.70;93.60;;;;;;5026886;28;20201;-77
2022/10/07 13:04:50;;;;;;;14.53;3.87;;;22.80;93.30;;;;;;5035142;28;20209;-75
2022/10/07 13:08:00;;;;;;;9.47;3.30;;;23.40;93.10;;;;;;5033742;28;20180;-77
2022/10/07 13:11:03;;;;;;;16.37;4.27;;;23.40;93.90;;;;;;5028311;28;20188;-72
2022/10/07 13:13:49;;;;;;;11.10;4.30;;;-40.00;56.30;;;;;;5046629;28;20200;-84
2022/10/07 13:16:40;;;;;;;11.03;3.43;;;-40.00;55.80;;;;;;5020652;28;20215;-72
2022/10/07 13:19:18;;;;;;;16.33;4.93;;;-40.00;52.80;;;;;;5031586;28;20181;-73
2022/10/07 13:22:11;;;;;;;9.57;2.50;;;-40.00;52.70;;;;;;5047250;28;20268;-75
2022/10/07 13:24:57;;;;;;;5.53;2.20;;;-40.00;51.80;;;;;;5037028;28;20474;-78
2022/10/07 13:27:27;;;;;;;12.63;3.77;;;-40.00;54.90;;;;;;5035896;28;20176;-77